sensor_id;sensor_type;location;lat;lon;timestamp;pressure;altitude;pressure_sealevel;temperature;humidity
42125;BME280;27787;44.594;11.046;2023-10-09T00:00:49;101638.50;;;20.40;75.53
42125;BME280;27787;44.594;11.046;2023-10-09T00:03:42;101644.47;;;20.55;72.09
42125;BME280;27787;44.594;11.046;2023-10-09T00:06:27;101643.25;;;20.73;69.92
42125;BME280;27787;44.594;11.046;2023-10-09T00:09:20;101636.59;;;20.91;68.32
42125;BME280;27787;44.594;11.046;2023-10-09T00:12:07;101639.91;;;21.04;67.34
42125;BME280;27787;44.594;11.046;2023-10-09T00:14:54;101636.13;;;21.12;66.73
42125;BME280;27787;44.594;11.046;2023-10-09T00:17:50;101636.81;;;21.20;66.04
42125;BME280;27787;44.594;11.046;2023-10-09T00:20:36;101637.81;;;21.16;66.60
42125;BME280;27787;44.594;11.046;2023-10-09T00:23:23;101633.56;;;21.06;67.96
42125;BME280;27787;44.594;11.046;2023-10-09T00:26:09;101636.56;;;20.92;68.75
42125;BME280;27787;44.594;11.046;2023-10-09T00:29:05;101634.91;;;20.87;68.65
42125;BME280;27787;44.594;11.046;2023-10-09T00:31:50;101627.94;;;20.77;69.59
42125;BME280;27787;44.594;11.046;2023-10-09T00:34:35;101634.44;;;20.65;70.75
42125;BME280;27787;44.594;11.046;2023-10-09T00:37:23;101634.59;;;20.59;70.82
42125;BME280;27787;44.594;11.046;2023-10-09T00:40:09;101632.78;;;20.59;70.08
42125;BME280;27787;44.594;11.046;2023-10-09T00:43:04;101633.69;;;20.60;70.50
42125;BME280;27787;44.594;11.046;2023-10-09T00:45:50;101630.19;;;20.55;71.39
42125;BME280;27787;44.594;11.046;2023-10-09T00:48:35;101632.94;;;20.52;71.73
42125;BME280;27787;44.594;11.046;2023-10-09T00:51:24;101632.91;;;20.53;69.51
42125;BME280;27787;44.594;11.046;2023-10-09T00:54:08;101636.50;;;20.52;70.14
42125;BME280;27787;44.594;11.046;2023-10-09T00:56:58;101633.88;;;20.49;70.85
42125;BME280;27787;44.594;11.046;2023-10-09T00:59:52;101636.72;;;20.39;71.73
42125;BME280;27787;44.594;11.046;2023-10-09T01:02:43;101646.00;;;20.22;72.02
42125;BME280;27787;44.594;11.046;2023-10-09T01:05:28;101648.09;;;20.03;73.39
42125;BME280;27787;44.594;11.046;2023-10-09T01:08:13;101642.25;;;19.79;74.91
42125;BME280;27787;44.594;11.046;2023-10-09T01:11:00;101641.59;;;19.64;75.13
42125;BME280;27787;44.594;11.046;2023-10-09T01:13:53;101643.47;;;19.61;75.42
42125;BME280;27787;44.594;11.046;2023-10-09T01:16:40;101632.66;;;19.65;75.74
42125;BME280;27787;44.594;11.046;2023-10-09T01:19:28;101625.31;;;19.78;73.86
42125;BME280;27787;44.594;11.046;2023-10-09T01:22:12;101622.38;;;19.92;72.26
42125;BME280;27787;44.594;11.046;2023-10-09T01:25:00;101631.06;;;20.08;71.22
42125;BME280;27787;44.594;11.046;2023-10-09T01:27:43;101625.56;;;20.14;69.92
42125;BME280;27787;44.594;11.046;2023-10-09T01:30:27;101620.03;;;20.24;68.61
42125;BME280;27787;44.594;11.046;2023-10-09T01:33:11;101623.47;;;20.32;68.00
42125;BME280;27787;44.594;11.046;2023-10-09T01:36:07;101612.56;;;20.40;67.68
42125;BME280;27787;44.594;11.046;2023-10-09T01:38:53;101615.22;;;20.45;68.00
42125;BME280;27787;44.594;11.046;2023-10-09T01:41:37;101616.97;;;20.46;67.98
42125;BME280;27787;44.594;11.046;2023-10-09T01:44:31;101612.53;;;20.45;69.41
42125;BME280;27787;44.594;11.046;2023-10-09T01:47:18;101610.75;;;20.42;69.59
42125;BME280;27787;44.594;11.046;2023-10-09T01:50:02;101612.56;;;20.42;70.08
42125;BME280;27787;44.594;11.046;2023-10-09T01:52:49;101611.72;;;20.38;70.80
42125;BME280;27787;44.594;11.046;2023-10-09T01:55:34;101611.78;;;20.35;71.53
42125;BME280;27787;44.594;11.046;2023-10-09T01:58:24;101604.72;;;20.29;71.84
42125;BME280;27787;44.594;11.046;2023-10-09T02:01:16;101608.38;;;20.25;72.00
42125;BME280;27787;44.594;11.046;2023-10-09T02:04:00;101609.38;;;20.21;71.92
42125;BME280;27787;44.594;11.046;2023-10-09T02:06:50;101608.50;;;20.19;71.82
42125;BME280;27787;44.594;11.046;2023-10-09T02:09:36;101606.75;;;20.18;71.00
42125;BME280;27787;44.594;11.046;2023-10-09T02:12:28;101605.91;;;20.15;70.50
42125;BME280;27787;44.594;11.046;2023-10-09T02:15:17;101601.44;;;20.14;69.71
42125;BME280;27787;44.594;11.046;2023-10-09T02:18:21;101606.00;;;20.10;69.58
42125;BME280;27787;44.594;11.046;2023-10-09T02:21:06;101608.75;;;20.07;69.47
42125;BME280;27787;44.594;11.046;2023-10-09T02:23:50;101607.91;;;20.02;69.97
42125;BME280;27787;44.594;11.046;2023-10-09T02:26:35;101604.38;;;20.00;69.49
42125;BME280;27787;44.594;11.046;2023-10-09T02:29:22;101608.03;;;19.96;69.33
42125;BME280;27787;44.594;11.046;2023-10-09T02:32:09;101612.66;;;19.88;69.81
42125;BME280;27787;44.594;11.046;2023-10-09T02:35:09;101612.78;;;19.79;69.56
42125;BME280;27787;44.594;11.046;2023-10-09T02:38:04;101617.34;;;19.73;70.03
42125;BME280;27787;44.594;11.046;2023-10-09T02:40:51;101619.09;;;19.76;69.67
42125;BME280;27787;44.594;11.046;2023-10-09T02:43:55;101620.97;;;19.71;69.42
42125;BME280;27787;44.594;11.046;2023-10-09T02:46:39;101630.88;;;19.67;69.66
42125;BME280;27787;44.594;11.046;2023-10-09T02:49:24;101627.34;;;19.62;69.00
42125;BME280;27787;44.594;11.046;2023-10-09T02:52:10;101629.19;;;19.60;68.79
42125;BME280;27787;44.594;11.046;2023-10-09T02:54:56;101632.75;;;19.61;68.35
42125;BME280;27787;44.594;11.046;2023-10-09T02:57:43;101626.50;;;19.60;68.20
42125;BME280;27787;44.594;11.046;2023-10-09T03:00:28;101632.72;;;19.62;67.46
42125;BME280;27787;44.594;11.046;2023-10-09T03:03:14;101630.94;;;19.61;66.84
42125;BME280;27787;44.594;11.046;2023-10-09T03:06:03;101628.28;;;19.61;65.80
42125;BME280;27787;44.594;11.046;2023-10-09T03:08:54;101629.13;;;19.63;66.04
42125;BME280;27787;44.594;11.046;2023-10-09T03:11:38;101635.28;;;19.70;65.15
42125;BME280;27787;44.594;11.046;2023-10-09T03:14:23;101632.63;;;19.68;64.54
42125;BME280;27787;44.594;11.046;2023-10-09T03:17:10;101630.91;;;19.64;64.45
42125;BME280;27787;44.594;11.046;2023-10-09T03:19:55;101630.88;;;19.66;64.17
42125;BME280;27787;44.594;11.046;2023-10-09T03:22:39;101633.53;;;19.66;63.82
42125;BME280;27787;44.594;11.046;2023-10-09T03:25:23;101631.78;;;19.66;63.84
42125;BME280;27787;44.594;11.046;2023-10-09T03:28:08;101632.59;;;19.70;63.95
42125;BME280;27787;44.594;11.046;2023-10-09T03:30:52;101630.72;;;19.75;63.71
42125;BME280;27787;44.594;11.046;2023-10-09T03:33:37;101629.75;;;19.79;63.23
42125;BME280;27787;44.594;11.046;2023-10-09T03:36:21;101629.63;;;19.87;63.24
42125;BME280;27787;44.594;11.046;2023-10-09T03:39:10;101628.66;;;19.91;63.03
42125;BME280;27787;44.594;11.046;2023-10-09T03:42:13;101625.06;;;19.93;63.55
42125;BME280;27787;44.594;11.046;2023-10-09T03:45:03;101624.16;;;19.94;64.23
42125;BME280;27787;44.594;11.046;2023-10-09T03:47:56;101627.69;;;19.96;64.28
42125;BME280;27787;44.594;11.046;2023-10-09T03:50:59;101626.88;;;19.93;63.23
42125;BME280;27787;44.594;11.046;2023-10-09T03:53:53;101625.06;;;19.92;62.49
42125;BME280;27787;44.594;11.046;2023-10-09T03:56:36;101618.78;;;19.94;62.51
42125;BME280;27787;44.594;11.046;2023-10-09T03:59:21;101616.03;;;19.99;61.62
42125;BME280;27787;44.594;11.046;2023-10-09T04:02:05;101625.75;;;20.06;60.79
42125;BME280;27787;44.594;11.046;2023-10-09T04:04:49;101616.69;;;20.12;60.63
42125;BME280;27787;44.594;11.046;2023-10-09T04:07:35;101619.31;;;20.15;60.55
42125;BME280;27787;44.594;11.046;2023-10-09T04:10:20;101618.38;;;20.16;60.14
42125;BME280;27787;44.594;11.046;2023-10-09T04:13:17;101617.47;;;20.18;59.55
42125;BME280;27787;44.594;11.046;2023-10-09T04:16:06;101617.41;;;20.21;59.61
42125;BME280;27787;44.594;11.046;2023-10-09T04:18:57;101617.41;;;20.21;59.44
42125;BME280;27787;44.594;11.046;2023-10-09T04:21:43;101617.47;;;20.18;59.70
42125;BME280;27787;44.594;11.046;2023-10-09T04:24:27;101614.81;;;20.15;59.52
42125;BME280;27787;44.594;11.046;2023-10-09T04:27:11;101613.09;;;20.13;59.49
42125;BME280;27787;44.594;11.046;2023-10-09T04:29:56;101615.81;;;20.11;59.83
42125;BME280;27787;44.594;11.046;2023-10-09T04:32:40;101617.63;;;20.09;59.95
42125;BME280;27787;44.594;11.046;2023-10-09T04:35:29;101610.47;;;20.10;60.13
42125;BME280;27787;44.594;11.046;2023-10-09T04:38:14;101616.78;;;20.07;60.03
42125;BME280;27787;44.594;11.046;2023-10-09T04:40:57;101619.50;;;20.04;60.28
42125;BME280;27787;44.594;11.046;2023-10-09T04:43:43;101618.66;;;20.00;60.69
42125;BME280;27787;44.594;11.046;2023-10-09T04:46:28;101618.78;;;19.94;61.54
42125;BME280;27787;44.594;11.046;2023-10-09T04:49:12;101615.34;;;19.86;62.07
42125;BME280;27787;44.594;11.046;2023-10-09T04:52:11;101618.13;;;19.82;62.42
42125;BME280;27787;44.594;11.046;2023-10-09T04:55:15;101621.81;;;19.74;62.30
42125;BME280;27787;44.594;11.046;2023-10-09T04:58:03;101620.03;;;19.73;62.89
42125;BME280;27787;44.594;11.046;2023-10-09T05:01:07;101614.63;;;19.77;62.54
42125;BME280;27787;44.594;11.046;2023-10-09T05:03:57;101620.84;;;19.77;62.50
42125;BME280;27787;44.594;11.046;2023-10-09T05:06:46;101618.22;;;19.76;63.11
42125;BME280;27787;44.594;11.046;2023-10-09T05:09:38;101620.94;;;19.72;62.60
42125;BME280;27787;44.594;11.046;2023-10-09T05:12:39;101619.13;;;19.74;62.12
42125;BME280;27787;44.594;11.046;2023-10-09T05:15:30;101619.97;;;19.77;61.22
42125;BME280;27787;44.594;11.046;2023-10-09T05:18:18;101619.13;;;19.74;61.49
42125;BME280;27787;44.594;11.046;2023-10-09T05:21:09;101621.81;;;19.74;61.43
42125;BME280;27787;44.594;11.046;2023-10-09T05:23:56;101623.56;;;19.76;60.85
42125;BME280;27787;44.594;11.046;2023-10-09T05:26:56;101620.88;;;19.76;61.00
42125;BME280;27787;44.594;11.046;2023-10-09T05:30:00;101628.00;;;19.77;61.42
42125;BME280;27787;44.594;11.046;2023-10-09T05:32:56;101634.31;;;19.74;61.54
42125;BME280;27787;44.594;11.046;2023-10-09T05:36:04;101629.06;;;19.68;61.97
42125;BME280;27787;44.594;11.046;2023-10-09T05:39:07;101637.19;;;19.62;62.03
42125;BME280;27787;44.594;11.046;2023-10-09T05:42:24;101630.94;;;19.61;62.02
42125;BME280;27787;44.594;11.046;2023-10-09T05:45:26;101631.84;;;19.62;62.27
42125;BME280;27787;44.594;11.046;2023-10-09T05:48:29;101634.44;;;19.65;61.31
42125;BME280;27787;44.594;11.046;2023-10-09T05:51:22;101640.69;;;19.67;61.00
42125;BME280;27787;44.594;11.046;2023-10-09T05:54:29;101636.19;;;19.69;60.84
42125;BME280;27787;44.594;11.046;2023-10-09T05:57:33;101645.06;;;19.72;60.74
42125;BME280;27787;44.594;11.046;2023-10-09T06:00:36;101640.59;;;19.73;61.04
42125;BME280;27787;44.594;11.046;2023-10-09T06:03:39;101638.72;;;19.77;60.29
42125;BME280;27787;44.594;11.046;2023-10-09T06:06:32;101637.72;;;19.84;59.96
42125;BME280;27787;44.594;11.046;2023-10-09T06:09:28;101642.94;;;19.93;59.65
42125;BME280;27787;44.594;11.046;2023-10-09T06:12:32;101646.44;;;19.96;60.33
42125;BME280;27787;44.594;11.046;2023-10-09T06:15:16;101641.16;;;19.93;61.12
42125;BME280;27787;44.594;11.046;2023-10-09T06:18:16;101641.16;;;19.93;61.18
42125;BME280;27787;44.594;11.046;2023-10-09T06:21:09;101643.78;;;19.96;60.83
42125;BME280;27787;44.594;11.046;2023-10-09T06:24:13;101649.03;;;20.01;60.83
42125;BME280;27787;44.594;11.046;2023-10-09T06:27:01;101647.22;;;20.03;61.08
42125;BME280;27787;44.594;11.046;2023-10-09T06:29:45;101648.94;;;20.07;60.63
42125;BME280;27787;44.594;11.046;2023-10-09T06:32:32;101643.56;;;20.09;60.68
42125;BME280;27787;44.594;11.046;2023-10-09T06:35:17;101648.78;;;20.15;60.27
42125;BME280;27787;44.594;11.046;2023-10-09T06:38:07;101645.16;;;20.17;60.54
42125;BME280;27787;44.594;11.046;2023-10-09T06:41:07;101652.31;;;20.17;61.15
42125;BME280;27787;44.594;11.046;2023-10-09T06:44:10;101646.97;;;20.18;62.59
42125;BME280;27787;44.594;11.046;2023-10-09T06:47:14;101642.47;;;20.19;62.63
42125;BME280;27787;44.594;11.046;2023-10-09T06:50:01;101639.81;;;20.19;62.93
42125;BME280;27787;44.594;11.046;2023-10-09T06:53:04;101646.91;;;20.21;63.05
42125;BME280;27787;44.594;11.046;2023-10-09T06:55:54;101648.66;;;20.22;62.96
42125;BME280;27787;44.594;11.046;2023-10-09T06:58:50;101653.97;;;20.25;62.95
42125;BME280;27787;44.594;11.046;2023-10-09T07:01:38;101656.56;;;20.30;63.49
42125;BME280;27787;44.594;11.046;2023-10-09T07:04:22;101661.84;;;20.35;62.86
42125;BME280;27787;44.594;11.046;2023-10-09T07:07:15;101654.59;;;20.40;63.04
42125;BME280;27787;44.594;11.046;2023-10-09T07:10:04;101660.81;;;20.45;63.29
42125;BME280;27787;44.594;11.046;2023-10-09T07:13:14;101653.59;;;20.47;62.99
42125;BME280;27787;44.594;11.046;2023-10-09T07:16:02;101660.75;;;20.48;62.42
42125;BME280;27787;44.594;11.046;2023-10-09T07:19:05;101668.72;;;20.51;62.67
42125;BME280;27787;44.594;11.046;2023-10-09T07:22:25;101657.88;;;20.55;63.34
42125;BME280;27787;44.594;11.046;2023-10-09T07:25:13;101663.19;;;20.60;63.66
42125;BME280;27787;44.594;11.046;2023-10-09T07:27:58;101659.47;;;20.66;63.62
42125;BME280;27787;44.594;11.046;2023-10-09T07:30:44;101662.06;;;20.72;62.90
42125;BME280;27787;44.594;11.046;2023-10-09T07:33:30;101668.06;;;20.83;63.23
42125;BME280;27787;44.594;11.046;2023-10-09T07:36:32;101658.91;;;20.93;63.37
42125;BME280;27787;44.594;11.046;2023-10-09T07:39:21;101659.66;;;21.01;62.36
42125;BME280;27787;44.594;11.046;2023-10-09T07:42:06;101672.84;;;21.12;60.63
42125;BME280;27787;44.594;11.046;2023-10-09T07:45:10;101669.00;;;21.22;60.00
42125;BME280;27787;44.594;11.046;2023-10-09T07:48:03;101667.03;;;21.32;59.54
42125;BME280;27787;44.594;11.046;2023-10-09T07:50:48;101666.88;;;21.39;58.58
42125;BME280;27787;44.594;11.046;2023-10-09T07:53:33;101673.88;;;21.46;57.88
42125;BME280;27787;44.594;11.046;2023-10-09T07:56:39;101675.50;;;21.54;57.74
42125;BME280;27787;44.594;11.046;2023-10-09T07:59:30;101677.19;;;21.58;58.19
42125;BME280;27787;44.594;11.046;2023-10-09T08:02:15;101663.72;;;21.59;58.43
42125;BME280;27787;44.594;11.046;2023-10-09T08:05:01;101668.09;;;21.65;58.43
42125;BME280;27787;44.594;11.046;2023-10-09T08:08:02;101668.00;;;21.68;57.94
42125;BME280;27787;44.594;11.046;2023-10-09T08:11:08;101661.63;;;21.72;57.25
42125;BME280;27787;44.594;11.046;2023-10-09T08:14:11;101665.97;;;21.77;57.75
42125;BME280;27787;44.594;11.046;2023-10-09T08:17:14;101670.31;;;21.83;57.63
42125;BME280;27787;44.594;11.046;2023-10-09T08:20:05;101669.25;;;21.90;58.03
42125;BME280;27787;44.594;11.046;2023-10-09T08:22:56;101668.28;;;21.93;58.01
42125;BME280;27787;44.594;11.046;2023-10-09T08:25:40;101669.97;;;21.97;57.80
42125;BME280;27787;44.594;11.046;2023-10-09T08:28:41;101668.94;;;22.02;57.07
42125;BME280;27787;44.594;11.046;2023-10-09T08:31:29;101661.56;;;22.11;57.33
42125;BME280;27787;44.594;11.046;2023-10-09T08:34:29;101662.31;;;22.17;57.06
42125;BME280;27787;44.594;11.046;2023-10-09T08:37:19;101672.00;;;22.23;57.26
42125;BME280;27787;44.594;11.046;2023-10-09T08:40:09;101677.25;;;22.29;56.26
42125;BME280;27787;44.594;11.046;2023-10-09T08:42:54;101667.22;;;22.34;55.46
42125;BME280;27787;44.594;11.046;2023-10-09T08:45:49;101669.84;;;22.37;55.27
42125;BME280;27787;44.594;11.046;2023-10-09T08:48:36;101661.63;;;22.43;55.64
42125;BME280;27787;44.594;11.046;2023-10-09T08:51:27;101665.97;;;22.47;55.94
42125;BME280;27787;44.594;11.046;2023-10-09T08:54:14;101664.94;;;22.51;55.71
42125;BME280;27787;44.594;11.046;2023-10-09T08:56:59;101663.09;;;22.55;56.32
42125;BME280;27787;44.594;11.046;2023-10-09T08:59:42;101666.47;;;22.61;56.22
42125;BME280;27787;44.594;11.046;2023-10-09T09:02:27;101653.72;;;22.68;56.38
42125;BME280;27787;44.594;11.046;2023-10-09T09:05:16;101658.06;;;22.74;56.45
42125;BME280;27787;44.594;11.046;2023-10-09T09:08:00;101650.69;;;22.80;56.73
42125;BME280;27787;44.594;11.046;2023-10-09T09:10:44;101650.47;;;22.88;55.75
42125;BME280;27787;44.594;11.046;2023-10-09T09:13:31;101652.81;;;23.00;56.22
42125;BME280;27787;44.594;11.046;2023-10-09T09:16:21;101651.75;;;23.06;55.71
42125;BME280;27787;44.594;11.046;2023-10-09T09:19:06;101652.28;;;23.18;54.54
42125;BME280;27787;44.594;11.046;2023-10-09T09:21:57;101650.38;;;23.22;54.83
42125;BME280;27787;44.594;11.046;2023-10-09T09:24:57;101643.88;;;23.28;54.22
42125;BME280;27787;44.594;11.046;2023-10-09T09:27:47;101636.63;;;23.30;54.17
42125;BME280;27787;44.594;11.046;2023-10-09T09:30:39;101630.34;;;23.29;54.68
42125;BME280;27787;44.594;11.046;2023-10-09T09:33:27;101632.81;;;23.37;54.63
42125;BME280;27787;44.594;11.046;2023-10-09T09:36:14;101634.88;;;23.57;52.50
42125;BME280;27787;44.594;11.046;2023-10-09T09:38:59;101625.69;;;23.64;51.55
42125;BME280;27787;44.594;11.046;2023-10-09T09:41:45;101618.38;;;23.94;51.33
42125;BME280;27787;44.594;11.046;2023-10-09T09:44:31;101607.59;;;23.94;51.44
42125;BME280;27787;44.594;11.046;2023-10-09T09:47:17;101610.19;;;23.97;51.51
42125;BME280;27787;44.594;11.046;2023-10-09T09:50:16;101606.56;;;23.98;51.80
42125;BME280;27787;44.594;11.046;2023-10-09T09:53:12;101600.13;;;24.02;51.83
42125;BME280;27787;44.594;11.046;2023-10-09T09:56:00;101591.09;;;24.03;52.51
42125;BME280;27787;44.594;11.046;2023-10-09T09:58:49;101590.88;;;24.09;51.45
42125;BME280;27787;44.594;11.046;2023-10-09T10:01:38;101591.72;;;24.11;51.53
42125;BME280;27787;44.594;11.046;2023-10-09T10:04:26;101586.13;;;24.16;51.82
42125;BME280;27787;44.594;11.046;2023-10-09T10:07:12;101593.19;;;24.20;51.48
42125;BME280;27787;44.594;11.046;2023-10-09T10:10:00;101585.81;;;24.25;51.06
42125;BME280;27787;44.594;11.046;2023-10-09T10:12:52;101582.84;;;24.32;51.64
42125;BME280;27787;44.594;11.046;2023-10-09T10:16:04;101586.16;;;24.40;50.75
42125;BME280;27787;44.594;11.046;2023-10-09T10:19:09;101577.97;;;24.67;49.74
42125;BME280;27787;44.594;11.046;2023-10-09T10:22:23;101576.09;;;24.69;49.50
42125;BME280;27787;44.594;11.046;2023-10-09T10:28:21;101570.47;;;24.75;50.56
42125;BME280;27787;44.594;11.046;2023-10-09T10:32:01;101564.47;;;24.67;50.77
42125;BME280;27787;44.594;11.046;2023-10-09T10:34:53;101558.66;;;24.78;50.14
42125;BME280;27787;44.594;11.046;2023-10-09T10:37:40;101559.34;;;24.83;50.02
42125;BME280;27787;44.594;11.046;2023-10-09T10:40:44;101554.66;;;24.88;49.03
42125;BME280;27787;44.594;11.046;2023-10-09T10:43:41;101545.53;;;24.90;49.45
42125;BME280;27787;44.594;11.046;2023-10-09T10:46:40;101542.53;;;24.98;48.32
42125;BME280;27787;44.594;11.046;2023-10-09T10:49:28;101533.22;;;25.07;48.77
42125;BME280;27787;44.594;11.046;2023-10-09T10:52:24;101529.56;;;25.08;48.75
42125;BME280;27787;44.594;11.046;2023-10-09T10:55:29;101521.44;;;25.08;48.68
42125;BME280;27787;44.594;11.046;2023-10-09T10:58:19;101518.56;;;25.34;46.71
42125;BME280;27787;44.594;11.046;2023-10-09T11:01:07;101515.47;;;25.43;45.51
42125;BME280;27787;44.594;11.046;2023-10-09T11:04:10;101511.97;;;25.41;46.18
42125;BME280;27787;44.594;11.046;2023-10-09T11:06:57;101493.09;;;25.40;45.91
42125;BME280;27787;44.594;11.046;2023-10-09T11:09:52;101499.50;;;25.37;45.89
42125;BME280;27787;44.594;11.046;2023-10-09T11:12:48;101488.56;;;25.40;45.82
42125;BME280;27787;44.594;11.046;2023-10-09T11:15:37;101482.34;;;25.58;44.64
42125;BME280;27787;44.594;11.046;2023-10-09T11:18:28;101472.13;;;25.65;44.00
42125;BME280;27787;44.594;11.046;2023-10-09T11:21:14;101462.13;;;25.69;44.49
42125;BME280;27787;44.594;11.046;2023-10-09T11:23:59;101459.56;;;25.64;44.38
42125;BME280;27787;44.594;11.046;2023-10-09T11:27:05;101455.03;;;25.65;44.06
42125;BME280;27787;44.594;11.046;2023-10-09T11:29:50;101449.41;;;25.71;43.73
42125;BME280;27787;44.594;11.046;2023-10-09T11:32:36;101445.59;;;25.75;44.00
42125;BME280;27787;44.594;11.046;2023-10-09T11:35:21;101446.28;;;25.80;44.81
42125;BME280;27787;44.594;11.046;2023-10-09T11:38:12;101442.88;;;25.95;43.37
42125;BME280;27787;44.594;11.046;2023-10-09T11:41:15;101436.09;;;26.05;43.59
42125;BME280;27787;44.594;11.046;2023-10-09T11:44:03;101422.63;;;26.04;43.24
42125;BME280;27787;44.594;11.046;2023-10-09T11:46:59;101428.41;;;25.96;43.85
42125;BME280;27787;44.594;11.046;2023-10-09T11:49:58;101431.69;;;26.03;43.82
42125;BME280;27787;44.594;11.046;2023-10-09T11:52:57;101418.34;;;26.19;43.45
42125;BME280;27787;44.594;11.046;2023-10-09T11:55:53;101410.22;;;26.19;43.78
42125;BME280;27787;44.594;11.046;2023-10-09T11:58:37;101404.44;;;26.26;44.19
42125;BME280;27787;44.594;11.046;2023-10-09T12:01:24;101397.66;;;26.36;44.18
42125;BME280;27787;44.594;11.046;2023-10-09T12:04:10;101395.53;;;26.43;42.82
42125;BME280;27787;44.594;11.046;2023-10-09T12:06:57;101391.41;;;26.53;41.45
42125;BME280;27787;44.594;11.046;2023-10-09T12:09:51;101385.63;;;26.61;41.42
42125;BME280;27787;44.594;11.046;2023-10-09T12:12:40;101380.03;;;26.83;40.94
42125;BME280;27787;44.594;11.046;2023-10-09T12:15:31;101374.84;;;26.95;40.99
42125;BME280;27787;44.594;11.046;2023-10-09T12:18:21;101378.06;;;27.03;40.74
42125;BME280;27787;44.594;11.046;2023-10-09T12:21:08;101364.34;;;27.07;40.52
42125;BME280;27787;44.594;11.046;2023-10-09T12:23:52;101366.53;;;27.17;40.34
42125;BME280;27787;44.594;11.046;2023-10-09T12:26:41;101361.16;;;27.33;40.26
42125;BME280;27787;44.594;11.046;2023-10-09T12:29:26;101349.44;;;27.32;40.82
42125;BME280;27787;44.594;11.046;2023-10-09T12:32:16;101346.38;;;27.23;40.90
42125;BME280;27787;44.594;11.046;2023-10-09T12:35:05;101341.91;;;27.22;41.58
42125;BME280;27787;44.594;11.046;2023-10-09T12:38:00;101339.19;;;27.22;41.37
42125;BME280;27787;44.594;11.046;2023-10-09T12:40:45;101333.03;;;27.18;42.00
42125;BME280;27787;44.594;11.046;2023-10-09T12:43:36;101329.34;;;27.19;42.14
42125;BME280;27787;44.594;11.046;2023-10-09T12:46:22;101330.88;;;27.25;42.28
42125;BME280;27787;44.594;11.046;2023-10-09T12:49:16;101327.84;;;27.31;42.12
42125;BME280;27787;44.594;11.046;2023-10-09T12:52:00;101316.75;;;27.36;41.88
42125;BME280;27787;44.594;11.046;2023-10-09T12:54:45;101311.88;;;27.42;41.29
42125;BME280;27787;44.594;11.046;2023-10-09T12:57:30;101309.94;;;27.44;40.91
42125;BME280;27787;44.594;11.046;2023-10-09T13:00:14;101300.66;;;27.66;40.68
42125;BME280;27787;44.594;11.046;2023-10-09T13:03:09;101304.00;;;27.86;40.40
42125;BME280;27787;44.594;11.046;2023-10-09T13:06:02;101294.84;;;27.89;40.57
42125;BME280;27787;44.594;11.046;2023-10-09T13:08:52;101291.16;;;27.90;40.31
42125;BME280;27787;44.594;11.046;2023-10-09T13:11:35;101293.00;;;27.89;40.80
42125;BME280;27787;44.594;11.046;2023-10-09T13:14:21;101282.25;;;27.88;40.98
42125;BME280;27787;44.594;11.046;2023-10-09T13:17:09;101287.50;;;27.91;41.25
42125;BME280;27787;44.594;11.046;2023-10-09T13:19:53;101283.72;;;27.94;40.37
42125;BME280;27787;44.594;11.046;2023-10-09T13:22:40;101281.28;;;27.89;40.97
42125;BME280;27787;44.594;11.046;2023-10-09T13:25:24;101283.03;;;27.90;40.38
42125;BME280;27787;44.594;11.046;2023-10-09T13:28:10;101280.41;;;28.04;39.77
42125;BME280;27787;44.594;11.046;2023-10-09T13:30:54;101268.94;;;28.15;39.41
42125;BME280;27787;44.594;11.046;2023-10-09T13:33:40;101269.25;;;28.25;39.10
42125;BME280;27787;44.594;11.046;2023-10-09T13:36:25;101271.19;;;28.23;39.70
42125;BME280;27787;44.594;11.046;2023-10-09T13:39:15;101255.25;;;28.16;40.30
42125;BME280;27787;44.594;11.046;2023-10-09T13:42:09;101258.16;;;28.13;40.07
42125;BME280;27787;44.594;11.046;2023-10-09T13:44:54;101262.34;;;28.19;40.10
42125;BME280;27787;44.594;11.046;2023-10-09T13:47:39;101260.09;;;28.27;39.73
42125;BME280;27787;44.594;11.046;2023-10-09T13:50:26;101257.19;;;28.30;39.16
42125;BME280;27787;44.594;11.046;2023-10-09T13:53:17;101254.28;;;28.33;39.17
42125;BME280;27787;44.594;11.046;2023-10-09T13:56:02;101249.63;;;28.35;39.75
42125;BME280;27787;44.594;11.046;2023-10-09T13:58:51;101244.84;;;28.40;39.65
42125;BME280;27787;44.594;11.046;2023-10-09T14:01:35;101240.09;;;28.44;38.77
42125;BME280;27787;44.594;11.046;2023-10-09T14:04:20;101232.06;;;28.57;38.93
42125;BME280;27787;44.594;11.046;2023-10-09T14:07:05;101228.22;;;28.75;38.33
42125;BME280;27787;44.594;11.046;2023-10-09T14:09:52;101230.06;;;28.74;38.48
42125;BME280;27787;44.594;11.046;2023-10-09T14:12:39;101226.91;;;28.82;38.42
42125;BME280;27787;44.594;11.046;2023-10-09T14:15:24;101224.03;;;28.99;37.83
42125;BME280;27787;44.594;11.046;2023-10-09T14:18:08;101213.56;;;29.07;37.60
42125;BME280;27787;44.594;11.046;2023-10-09T14:20:55;101224.66;;;29.19;37.39
42125;BME280;27787;44.594;11.046;2023-10-09T14:23:40;101214.44;;;29.22;37.75
42125;BME280;27787;44.594;11.046;2023-10-09T14:26:29;101215.50;;;29.20;38.04
42125;BME280;27787;44.594;11.046;2023-10-09T14:29:14;101211.91;;;29.19;37.48
42125;BME280;27787;44.594;11.046;2023-10-09T14:32:00;101204.34;;;29.24;37.88
42125;BME280;27787;44.594;11.046;2023-10-09T14:34:45;101203.84;;;29.32;38.21
42125;BME280;27787;44.594;11.046;2023-10-09T14:37:36;101198.22;;;29.35;37.83
42125;BME280;27787;44.594;11.046;2023-10-09T14:40:23;101203.44;;;29.38;37.83
42125;BME280;27787;44.594;11.046;2023-10-09T14:43:16;101199.09;;;29.50;37.69